Time;durP1;ratioP1;P1;durP2;ratioP2;P2;SDS_P1;SDS_P2;PMS_P1;PMS_P2;Temp;Humidity;BMP_temperature;BMP_pressure;BME280_temperature;BME280_humidity;BME280_pressure;Samples;Min_cycle;Max_cycle;Signal;HPM_P1;HPM_P2
2024/03/30 00:00:53;;;;;;;4.23;1.97;;;;;;;11.77;100.00;99540.44;4857254;29;20456;-66
2024/03/30 00:03:23;;;;;;;5.33;2.40;;;;;;;11.75;100.00;99542.59;4839594;29;20448;-66
2024/03/30 00:05:59;;;;;;;3.63;2.03;;;;;;;11.66;100.00;99549.44;4859599;29;20416;-66
2024/03/30 00:08:27;;;;;;;2.60;2.40;;;;;;;11.54;100.00;99548.66;4858433;29;20451;-67
2024/03/30 00:11:04;;;;;;;3.63;3.33;;;;;;;11.58;100.00;99551.69;4841390;29;20796;-64
2024/03/30 00:13:32;;;;;;;2.80;2.50;;;;;;;11.51;100.00;99546.44;4845392;29;20413;-64
2024/03/30 00:16:06;;;;;;;5.50;2.30;;;;;;;11.42;100.00;99547.03;4857891;29;21030;-66
2024/03/30 00:18:36;;;;;;;3.90;2.50;;;;;;;11.36;100.00;99551.53;4848638;29;20447;-65
2024/03/30 00:21:03;;;;;;;3.87;3.00;;;;;;;11.43;100.00;99554.91;4843523;29;20449;-65
2024/03/30 00:23:32;;;;;;;2.97;2.30;;;;;;;11.41;100.00;99558.94;4843541;29;20446;-66
2024/03/30 00:25:59;;;;;;;3.10;2.07;;;;;;;11.51;100.00;99557.25;4857007;29;20496;-67
2024/03/30 00:28:28;;;;;;;2.80;1.93;;;;;;;11.51;100.00;99556.44;4831067;29;20447;-65
2024/03/30 00:30:54;;;;;;;5.43;3.77;;;;;;;11.46;100.00;99548.22;4851188;29;20460;-65
2024/03/30 00:33:22;;;;;;;8.80;2.07;;;;;;;11.49;100.00;99559.38;4837438;29;20415;-64
2024/03/30 00:35:55;;;;;;;3.53;3.23;;;;;;;11.47;100.00;99556.09;4840604;29;20455;-66
2024/03/30 00:38:25;;;;;;;3.90;1.83;;;;;;;11.53;100.00;99560.53;4858303;29;20985;-65
2024/03/30 00:40:52;;;;;;;3.33;2.00;;;;;;;11.41;100.00;99554.34;4841415;29;20525;-64
2024/03/30 00:43:21;;;;;;;2.30;1.80;;;;;;;11.47;100.00;99549.84;4868297;29;20934;-64
2024/03/30 00:45:48;;;;;;;3.10;2.37;;;;;;;11.45;100.00;99550.09;4862793;29;20445;-64
2024/03/30 00:48:15;;;;;;;3.53;2.30;;;;;;;11.51;100.00;99532.06;4843598;29;20447;-64
2024/03/30 00:50:43;;;;;;;2.93;2.00;;;;;;;11.31;100.00;99535.19;4838532;29;20464;-66
2024/03/30 00:53:12;;;;;;;4.70;2.47;;;;;;;11.26;100.00;99530.47;4865825;29;20418;-65
2024/03/30 00:55:38;;;;;;;6.70;2.77;;;;;;;11.18;100.00;99535.44;4857165;29;20479;-65
2024/03/30 00:58:07;;;;;;;5.53;3.27;;;;;;;10.97;100.00;99527.94;4839562;29;20475;-63
2024/03/30 01:00:33;;;;;;;2.30;1.77;;;;;;;10.85;100.00;99515.25;4836373;29;20460;-65
2024/03/30 01:03:01;;;;;;;3.13;2.50;;;;;;;10.84;100.00;99501.97;4841248;29;20418;-65
2024/03/30 01:05:28;;;;;;;2.77;1.70;;;;;;;10.76;100.00;99511.25;4836485;29;20448;-65
2024/03/30 01:07:56;;;;;;;3.03;2.53;;;;;;;10.67;100.00;99509.97;4839597;29;20448;-60
2024/03/30 01:10:24;;;;;;;3.30;3.03;;;;;;;10.65;100.00;99514.78;4841891;29;20470;-65
2024/03/30 01:12:52;;;;;;;3.73;2.77;;;;;;;10.64;100.00;99512.34;4835608;29;20821;-64
2024/03/30 01:15:22;;;;;;;3.33;2.30;;;;;;;10.61;100.00;99502.78;4837814;29;20492;-63
2024/03/30 01:17:50;;;;;;;3.07;2.47;;;;;;;10.56;100.00;99502.69;4840730;29;20445;-64
2024/03/30 01:20:20;;;;;;;3.37;3.07;;;;;;;10.73;100.00;99506.34;4839404;29;20464;-63
2024/03/30 01:22:48;;;;;;;4.00;2.43;;;;;;;10.58;100.00;99503.28;4837002;29;20452;-63
2024/03/30 01:25:16;;;;;;;5.43;4.00;;;;;;;10.62;100.00;99493.63;4863728;29;20487;-65
2024/03/30 01:27:46;;;;;;;3.60;3.30;;;;;;;10.49;100.00;99493.06;4846535;29;20432;-65
2024/03/30 01:30:15;;;;;;;2.70;2.50;;;;;;;10.50;100.00;99483.88;4834351;29;20849;-65
2024/03/30 01:32:44;;;;;;;3.70;2.93;;;;;;;10.40;100.00;99484.47;4840275;29;20440;-63
2024/03/30 01:35:12;;;;;;;2.67;2.07;;;;;;;10.56;100.00;99494.56;4857367;29;21040;-64
2024/03/30 01:37:39;;;;;;;3.60;2.47;;;;;;;10.42;100.00;99496.69;4840171;29;20445;-64
2024/03/30 01:40:07;;;;;;;3.70;2.50;;;;;;;10.39;100.00;99497.16;4837268;29;20492;-64
2024/03/30 01:42:36;;;;;;;2.20;1.90;;;;;;;10.19;100.00;99493.16;4851981;29;20441;-64
2024/03/30 01:45:04;;;;;;;3.30;2.60;;;;;;;10.07;100.00;99497.69;4851452;29;20448;-65
2024/03/30 01:47:32;;;;;;;4.90;3.00;;;;;;;9.99;100.00;99499.66;4857597;29;20781;-65
2024/03/30 01:50:00;;;;;;;2.30;1.90;;;;;;;9.89;100.00;99502.09;4849595;29;20512;-65
2024/03/30 01:52:31;;;;;;;3.87;2.47;;;;;;;9.85;100.00;99503.63;4835523;29;20448;-66
2024/03/30 01:54:59;;;;;;;5.95;2.70;;;;;;;9.89;100.00;99504.81;4857915;29;20925;-63
2024/03/30 01:57:28;;;;;;;2.47;1.77;;;;;;;9.73;100.00;99500.06;4826776;29;20208;-66
2024/03/30 01:59:55;;;;;;;4.83;3.40;;;;;;;9.69;100.00;99504.28;4857179;29;20468;-64
2024/03/30 02:02:25;;;;;;;8.03;3.10;;;;;;;9.61;100.00;99507.31;4840060;29;20488;-63
2024/03/30 02:04:53;;;;;;;6.23;2.60;;;;;;;9.62;100.00;99503.56;4856482;29;20501;-66
2024/03/30 02:07:21;;;;;;;4.60;2.47;;;;;;;9.65;100.00;99495.00;4851980;29;20444;-62
2024/03/30 02:09:48;;;;;;;5.70;3.50;;;;;;;9.75;100.00;99491.72;4854819;29;20475;-66
2024/03/30 02:12:16;;;;;;;5.77;2.67;;;;;;;9.70;100.00;99495.13;4834295;29;20449;-65
2024/03/30 02:14:44;;;;;;;4.65;2.33;;;;;;;9.71;100.00;99496.78;4837494;29;20435;-65
2024/03/30 02:17:12;;;;;;;3.27;2.97;;;;;;;9.65;100.00;99500.41;4850670;29;20625;-63
2024/03/30 02:19:45;;;;;;;2.13;1.80;;;;;;;9.55;100.00;99498.25;4854701;29;21149;-65
2024/03/30 02:22:17;;;;;;;2.07;1.97;;;;;;;9.44;100.00;99501.72;4856244;29;20199;-65
2024/03/30 02:24:45;;;;;;;4.17;2.97;;;;;;;9.52;100.00;99493.31;4860928;29;20527;-64
2024/03/30 02:27:13;;;;;;;5.60;3.47;;;;;;;9.48;100.00;99486.72;4838837;29;20443;-64
2024/03/30 02:29:42;;;;;;;7.03;2.88;;;;;;;9.45;100.00;99492.56;4844987;29;20223;-65
2024/03/30 02:32:11;;;;;;;2.97;2.67;;;;;;;9.50;100.00;99489.19;4841545;29;20357;-65
2024/03/30 02:34:38;;;;;;;3.08;2.75;;;;;;;9.47;100.00;99485.06;4861118;29;21030;-65
2024/03/30 02:37:06;;;;;;;2.53;2.15;;;;;;;9.43;100.00;99483.88;4844352;29;20207;-66
2024/03/30 02:39:33;;;;;;;2.63;1.65;;;;;;;9.43;100.00;99491.16;4857756;29;20568;-64
2024/03/30 02:42:02;;;;;;;4.37;3.40;;;;;;;9.35;100.00;99486.06;4839867;29;20226;-66
2024/03/30 02:44:29;;;;;;;2.47;2.27;;;;;;;9.33;100.00;99488.19;4855173;29;20456;-65
2024/03/30 02:46:57;;;;;;;6.80;3.30;;;;;;;9.23;100.00;99485.19;4858993;29;20440;-65
2024/03/30 02:49:24;;;;;;;1.90;1.75;;;;;;;9.19;100.00;99481.31;4843580;29;20196;-63
2024/03/30 02:51:52;;;;;;;7.33;2.53;;;;;;;9.23;100.00;99490.59;4838687;29;20228;-65
2024/03/30 02:54:19;;;;;;;6.65;2.78;;;;;;;9.08;100.00;99486.41;4852191;29;20452;-63
2024/03/30 02:56:47;;;;;;;4.00;3.03;;;;;;;9.12;100.00;99487.59;4839843;29;20214;-68
2024/03/30 02:59:15;;;;;;;7.70;2.30;;;;;;;9.16;100.00;99483.41;4845474;29;20463;-67
2024/03/30 03:01:45;;;;;;;4.13;2.20;;;;;;;9.04;100.00;99487.94;4854745;29;20195;-64
2024/03/30 03:04:12;;;;;;;2.70;1.95;;;;;;;8.90;100.00;99482.91;4860695;29;20199;-66
2024/03/30 03:06:40;;;;;;;3.97;2.10;;;;;;;9.01;100.00;99491.06;4844623;29;20202;-65
2024/03/30 03:09:07;;;;;;;2.13;1.73;;;;;;;9.07;100.00;99490.16;4840731;29;20661;-67
2024/03/30 03:11:35;;;;;;;4.88;2.33;;;;;;;9.13;100.00;99494.66;4828939;29;20227;-64
2024/03/30 03:14:02;;;;;;;3.08;2.22;;;;;;;9.02;100.00;99498.09;4844910;29;20204;-66
2024/03/30 03:16:31;;;;;;;3.25;3.00;;;;;;;8.96;100.00;99504.41;4860167;29;20712;-65
2024/03/30 03:18:58;;;;;;;5.53;2.90;;;;;;;8.93;100.00;99499.47;4853968;29;20195;-64
2024/03/30 03:21:25;;;;;;;3.40;2.90;;;;;;;8.93;100.00;99507.56;4844570;29;20212;-64
2024/03/30 03:23:52;;;;;;;1.77;1.40;;;;;;;8.96;100.00;99503.56;4857268;29;20196;-65
2024/03/30 03:26:20;;;;;;;2.97;2.30;;;;;;;9.05;100.00;99508.44;4852944;29;20195;-63
2024/03/30 03:28:47;;;;;;;2.30;2.10;;;;;;;9.01;100.00;99507.25;4845838;29;20199;-64
2024/03/30 03:31:15;;;;;;;3.33;2.15;;;;;;;8.95;100.00;99502.78;4859977;29;20224;-63
2024/03/30 03:33:43;;;;;;;2.83;2.53;;;;;;;8.93;100.00;99496.75;4844244;29;20572;-64
2024/03/30 03:36:11;;;;;;;3.85;2.17;;;;;;;8.90;100.00;99489.13;4842021;29;20294;-61
2024/03/30 03:38:38;;;;;;;2.42;1.67;;;;;;;8.87;100.00;99486.03;4844628;29;20617;-64
2024/03/30 03:41:06;;;;;;;3.58;2.72;;;;;;;8.84;100.00;99484.63;4859940;29;20231;-64
2024/03/30 03:43:33;;;;;;;3.50;2.35;;;;;;;8.81;100.00;99482.38;4859731;29;20200;-65
2024/03/30 03:46:01;;;;;;;4.78;1.50;;;;;;;8.81;100.00;99476.97;4844301;29;20203;-65
2024/03/30 03:48:27;;;;;;;1.38;1.27;;;;;;;8.83;100.00;99480.28;4859858;29;20192;-65
2024/03/30 03:50:57;;;;;;;3.58;2.10;;;;;;;8.88;100.00;99485.81;4844209;29;20270;-64
2024/03/30 03:53:24;;;;;;;1.85;1.63;;;;;;;8.75;100.00;99491.38;4844443;29;20199;-65
2024/03/30 03:55:52;;;;;;;3.30;2.92;;;;;;;8.65;100.00;99477.59;4855698;29;20211;-65
2024/03/30 03:58:19;;;;;;;2.65;1.30;;;;;;;8.70;100.00;99475.03;4858666;29;20196;-63
2024/03/30 04:00:47;;;;;;;2.50;2.10;;;;;;;8.70;100.00;99469.66;4838167;29;20218;-64
2024/03/30 04:03:13;;;;;;;1.67;1.58;;;;;;;8.69;100.00;99465.31;4859700;29;20199;-64
2024/03/30 04:05:41;;;;;;;1.98;1.58;;;;;;;8.71;100.00;99463.22;4859863;29;20211;-65
2024/03/30 04:08:09;;;;;;;3.20;2.28;;;;;;;8.75;100.00;99466.28;4858137;29;20196;-64
2024/03/30 04:10:37;;;;;;;3.00;1.98;;;;;;;8.92;100.00;99476.22;4852854;29;20212;-66
2024/03/30 04:13:04;;;;;;;2.20;1.73;;;;;;;8.82;100.00;99480.50;4844709;29;20207;-65
2024/03/30 04:15:35;;;;;;;3.30;1.30;;;;;;;8.78;100.00;99490.91;4852094;29;20209;-63
2024/03/30 04:18:02;;;;;;;2.53;1.70;;;;;;;8.68;100.00;99496.00;4858211;29;20204;-64
2024/03/30 04:20:30;;;;;;;3.53;2.05;;;;;;;8.59;100.00;99497.34;4859150;29;20219;-64
2024/03/30 04:22:57;;;;;;;2.70;2.50;;;;;;;8.63;100.00;99503.94;4856440;29;20200;-64
2024/03/30 04:25:27;;;;;;;2.15;1.55;;;;;;;8.59;100.00;99497.34;4854977;29;20200;-64
2024/03/30 04:27:54;;;;;;;4.00;1.52;;;;;;;8.54;100.00;99499.88;4838959;29;20187;-65
2024/03/30 04:30:22;;;;;;;2.30;2.10;;;;;;;8.50;100.00;99496.00;4857311;29;20207;-63
2024/03/30 04:32:49;;;;;;;3.50;1.80;;;;;;;8.53;100.00;99482.88;4859574;29;20564;-65
2024/03/30 04:35:17;;;;;;;2.42;2.00;;;;;;;8.49;100.00;99492.47;4856533;29;20191;-64
2024/03/30 04:37:45;;;;;;;3.97;1.65;;;;;;;8.41;100.00;99486.53;4858823;29;20260;-64
2024/03/30 04:40:13;;;;;;;1.85;1.75;;;;;;;8.56;100.00;99490.53;4859472;29;20230;-65
2024/03/30 04:42:42;;;;;;;1.35;1.13;;;;;;;8.45;100.00;99501.22;4836583;29;20222;-65
2024/03/30 04:45:09;;;;;;;1.40;1.20;;;;;;;8.54;100.00;99494.50;4857812;29;20195;-62
2024/03/30 04:47:37;;;;;;;1.77;1.60;;;;;;;8.48;100.00;99500.78;4844759;29;20692;-65
2024/03/30 04:50:04;;;;;;;1.45;1.10;;;;;;;8.47;100.00;99491.06;4858797;29;20985;-65
2024/03/30 04:52:32;;;;;;;4.05;1.42;;;;;;;8.57;100.00;99491.34;4858886;29;20264;-65
2024/03/30 04:54:59;;;;;;;1.58;1.48;;;;;;;8.67;100.00;99497.03;4843186;29;20621;-64
2024/03/30 04:57:27;;;;;;;4.18;2.70;;;;;;;8.72;100.00;99508.00;4841227;29;20213;-62
2024/03/30 04:59:55;;;;;;;5.72;1.10;;;;;;;8.77;100.00;99513.53;4838952;29;20216;-64
2024/03/30 05:02:23;;;;;;;1.98;1.20;;;;;;;8.90;100.00;99494.53;4840525;29;20290;-65
2024/03/30 05:04:50;;;;;;;3.30;2.80;;;;;;;9.00;100.00;99489.44;4858932;29;20206;-65
2024/03/30 05:07:18;;;;;;;2.00;1.38;;;;;;;9.01;100.00;99482.97;4838832;29;20187;-62
2024/03/30 05:09:45;;;;;;;1.60;1.27;;;;;;;9.08;100.00;99475.63;4854848;29;20716;-63
2024/03/30 05:12:13;;;;;;;2.88;1.48;;;;;;;9.05;100.00;99489.56;4843899;29;20195;-62
2024/03/30 05:14:40;;;;;;;2.03;1.60;;;;;;;9.06;100.00;99493.06;4855592;29;20210;-64
2024/03/30 05:17:09;;;;;;;1.83;1.73;;;;;;;9.21;100.00;99485.41;4851913;29;20211;-65
2024/03/30 05:22:26;;;;;;;1.65;1.50;;;;;;;9.14;100.00;99469.31;4845863;29;20203;-65
2024/03/30 05:24:54;;;;;;;1.05;0.80;;;;;;;9.19;100.00;99465.94;4849839;29;20200;-63
2024/03/30 05:27:21;;;;;;;7.50;1.90;;;;;;;9.37;100.00;99478.56;4845861;29;20195;-62
2024/03/30 05:29:49;;;;;;;3.03;2.30;;;;;;;9.56;100.00;99472.06;4843658;29;20220;-62
2024/03/30 05:32:17;;;;;;;3.47;1.10;;;;;;;9.71;100.00;99474.34;4845278;29;20572;-65
2024/03/30 05:34:45;;;;;;;6.10;1.90;;;;;;;9.82;100.00;99481.66;4858632;29;20206;-64
2024/03/30 05:37:12;;;;;;;1.88;1.70;;;;;;;9.93;100.00;99467.34;4843061;29;20211;-64
2024/03/30 05:39:40;;;;;;;1.33;1.00;;;;;;;10.01;100.00;99473.25;4858390;29;20471;-64
2024/03/30 05:42:07;;;;;;;1.73;1.63;;;;;;;10.16;100.00;99485.50;4858469;29;20548;-65
2024/03/30 05:44:35;;;;;;;1.93;1.13;;;;;;;10.27;100.00;99473.88;4857138;29;20196;-63
2024/03/30 05:47:02;;;;;;;2.60;1.10;;;;;;;10.54;100.00;99468.81;4858093;29;20472;-64
2024/03/30 05:49:31;;;;;;;2.33;1.30;;;;;;;10.54;100.00;99475.06;4843105;29;20436;-64
2024/03/30 05:51:58;;;;;;;3.88;1.67;;;;;;;10.77;100.00;99468.78;4854774;29;20472;-65
2024/03/30 05:54:26;;;;;;;3.70;2.42;;;;;;;10.58;100.00;99468.13;4858434;29;20202;-62
2024/03/30 05:56:53;;;;;;;1.60;1.33;;;;;;;10.47;100.00;99460.81;4844259;29;20336;-65
2024/03/30 05:59:21;;;;;;;1.20;1.10;;;;;;;10.36;100.00;99457.06;4847012;29;20230;-62
2024/03/30 06:01:48;;;;;;;3.05;1.55;;;;;;;10.23;100.00;99457.31;4847092;29;20519;-65
2024/03/30 06:04:15;;;;;;;1.52;1.42;;;;;;;10.28;100.00;99464.69;4862341;29;20199;-64
2024/03/30 06:06:44;;;;;;;2.33;1.50;;;;;;;10.33;100.00;99470.22;4861911;29;20205;-65
2024/03/30 06:09:11;;;;;;;1.50;1.40;;;;;;;10.43;100.00;99463.19;4858219;29;20441;-65
2024/03/30 06:11:38;;;;;;;5.23;1.70;;;;;;;10.60;100.00;99465.97;4838374;29;20499;-64
2024/03/30 06:14:06;;;;;;;1.50;1.23;;;;;;;10.90;98.72;99466.66;4863291;29;20504;-65
2024/03/30 06:16:33;;;;;;;1.50;1.40;;;;;;;11.13;96.44;99473.06;4850333;29;20482;-65
2024/03/30 06:19:01;;;;;;;2.37;1.03;;;;;;;11.09;96.39;99469.19;4868460;29;20460;-65
2024/03/30 06:21:28;;;;;;;3.00;1.50;;;;;;;11.15;95.58;99476.34;4863487;29;20463;-65
2024/03/30 06:23:57;;;;;;;1.90;1.23;;;;;;;11.11;95.24;99470.59;4847098;29;20448;-62
2024/03/30 06:26:24;;;;;;;1.43;0.90;;;;;;;10.99;94.91;99474.41;4844974;29;20455;-65
2024/03/30 06:28:52;;;;;;;8.13;1.80;;;;;;;11.02;95.45;99474.75;4843625;29;20815;-64
2024/03/30 06:31:20;;;;;;;2.33;2.13;;;;;;;10.95;95.74;99473.22;4845651;29;20517;-65
2024/03/30 06:33:48;;;;;;;2.37;1.60;;;;;;;10.97;95.79;99468.41;4861179;29;20444;-64
2024/03/30 06:36:15;;;;;;;1.77;1.67;;;;;;;11.14;94.58;99480.13;4861281;29;20436;-65
2024/03/30 06:38:42;;;;;;;2.73;1.87;;;;;;;11.33;93.53;99478.88;4846142;29;20446;-65
2024/03/30 06:43:58;;;;;;;1.67;1.50;;;;;;;11.68;92.14;99487.69;4845810;29;20580;-63
2024/03/30 06:46:25;;;;;;;3.87;2.20;;;;;;;11.88;90.66;99486.44;4861062;29;20403;-64
2024/03/30 06:48:54;;;;;;;2.03;1.20;;;;;;;11.93;90.29;99489.22;4861179;29;20444;-62
2024/03/30 06:51:22;;;;;;;2.13;1.37;;;;;;;12.05;89.70;99492.69;4845426;29;20456;-64
2024/03/30 06:53:50;;;;;;;6.47;3.30;;;;;;;12.12;88.78;99496.88;4860990;29;20457;-63
2024/03/30 06:56:18;;;;;;;2.80;1.50;;;;;;;12.15;88.32;99499.09;4845723;29;20468;-65
2024/03/30 06:58:46;;;;;;;1.30;0.97;;;;;;;12.19;88.19;99499.44;4846366;29;20424;-65
2024/03/30 07:01:13;;;;;;;2.77;2.27;;;;;;;12.25;88.16;99498.44;4840192;29;20448;-65
2024/03/30 07:03:41;;;;;;;4.37;2.80;;;;;;;12.47;87.28;99498.53;4858461;29;20459;-62
2024/03/30 07:06:09;;;;;;;1.57;1.47;;;;;;;12.63;86.20;99498.47;4846555;29;20444;-63
2024/03/30 07:08:38;;;;;;;2.70;1.83;;;;;;;12.71;84.93;99497.25;4857083;29;20444;-64
2024/03/30 07:11:05;;;;;;;2.00;1.70;;;;;;;12.90;84.32;99492.34;4861393;29;20459;-65
2024/03/30 07:13:35;;;;;;;2.97;1.93;;;;;;;13.08;83.93;99486.59;4848412;29;20752;-64
2024/03/30 07:16:02;;;;;;;1.97;1.37;;;;;;;13.12;83.42;99470.69;4859551;29;20788;-64
2024/03/30 07:18:30;;;;;;;1.43;1.07;;;;;;;13.25;81.98;99476.56;4855650;29;20562;-63
2024/03/30 07:20:56;;;;;;;4.37;3.00;;;;;;;13.18;82.82;99473.19;4859930;29;20450;-65
2024/03/30 07:23:25;;;;;;;2.53;1.93;;;;;;;13.40;81.40;99479.44;4848796;29;20448;-64
2024/03/30 07:25:52;;;;;;;2.63;2.43;;;;;;;13.60;80.62;99478.03;4847748;29;20452;-64
2024/03/30 07:28:20;;;;;;;1.87;1.67;;;;;;;13.83;79.29;99480.44;4844221;29;20432;-65
2024/03/30 07:30:53;;;;;;;2.40;2.03;;;;;;;14.10;78.20;99485.81;4845472;29;20786;-64
2024/03/30 07:33:21;;;;;;;2.17;1.77;;;;;;;14.28;77.33;99478.09;4850361;29;20814;-62
2024/03/30 07:35:54;;;;;;;5.90;1.67;;;;;;;14.39;76.52;99475.47;4843394;29;20415;-65
2024/03/30 07:38:24;;;;;;;2.50;1.57;;;;;;;14.76;75.18;99484.44;4862274;29;20442;-64
2024/03/30 07:40:51;;;;;;;2.37;1.80;;;;;;;15.05;73.61;99480.25;4841302;29;20439;-64
2024/03/30 07:43:19;;;;;;;3.23;2.57;;;;;;;15.40;71.62;99481.44;4856423;29;20788;-65
2024/03/30 07:45:47;;;;;;;2.97;1.80;;;;;;;15.48;70.63;99479.03;4858747;29;20501;-65
2024/03/30 07:48:16;;;;;;;1.97;1.50;;;;;;;15.52;70.48;99471.16;4854624;29;20418;-64
2024/03/30 07:50:43;;;;;;;3.20;2.07;;;;;;;15.56;70.49;99464.09;4860229;29;20480;-63
2024/03/30 07:53:11;;;;;;;3.30;1.50;;;;;;;15.34;71.06;99467.00;4844658;29;20619;-64
2024/03/30 07:55:39;;;;;;;3.07;1.60;;;;;;;15.39;70.80;99461.56;4844490;29;20439;-65
2024/03/30 07:58:06;;;;;;;2.37;1.97;;;;;;;15.56;70.41;99472.25;4861707;29;20803;-64
2024/03/30 08:00:33;;;;;;;2.40;2.20;;;;;;;15.79;69.76;99460.03;4846183;29;20438;-63
2024/03/30 08:03:01;;;;;;;4.20;2.17;;;;;;;15.83;68.59;99464.66;4847529;29;20869;-64
2024/03/30 08:05:31;;;;;;;5.13;2.43;;;;;;;15.86;68.71;99477.78;4859890;29;20451;-64
2024/03/30 08:07:58;;;;;;;4.33;2.00;;;;;;;16.21;67.75;99474.25;4845204;29;20428;-63
2024/03/30 08:10:25;;;;;;;2.80;2.03;;;;;;;16.36;66.96;99465.25;4859142;29;20435;-64
2024/03/30 08:12:53;;;;;;;5.10;1.80;;;;;;;16.21;67.05;99473.44;4860212;29;20934;-64
2024/03/30 08:15:20;;;;;;;3.90;1.70;;;;;;;16.30;66.77;99469.06;4846446;29;20929;-63
2024/03/30 08:17:48;;;;;;;3.53;2.00;;;;;;;16.32;66.74;99455.94;4856944;29;20443;-64
2024/03/30 08:20:15;;;;;;;2.33;2.13;;;;;;;16.47;66.71;99469.59;4860749;29;20529;-63
2024/03/30 08:22:46;;;;;;;3.53;2.30;;;;;;;16.54;65.39;99464.69;4839848;29;20423;-65
2024/03/30 08:25:12;;;;;;;2.80;1.77;;;;;;;16.57;66.01;99471.47;4859726;29;20403;-65
2024/03/30 08:27:40;;;;;;;2.60;2.03;;;;;;;16.41;65.46;99462.53;4838715;29;20433;-62
2024/03/30 08:30:08;;;;;;;16.20;2.70;;;;;;;16.69;65.09;99467.41;4840222;29;20449;-65
2024/03/30 08:32:36;;;;;;;4.40;4.00;;;;;;;16.61;65.49;99467.97;4837226;29;20419;-65
2024/03/30 08:35:03;;;;;;;1.77;1.53;;;;;;;16.75;65.01;99469.03;4842703;29;20421;-65
2024/03/30 08:37:31;;;;;;;6.70;2.53;;;;;;;17.08;64.15;99469.47;4855451;29;20479;-66
2024/03/30 08:39:59;;;;;;;4.90;2.10;;;;;;;16.90;63.58;99477.19;4839762;29;20468;-63
2024/03/30 08:42:27;;;;;;;1.77;1.53;;;;;;;16.78;64.12;99473.13;4854733;29;20459;-64
2024/03/30 08:44:54;;;;;;;3.33;1.67;;;;;;;17.03;63.58;99464.84;4850350;29;20431;-65
2024/03/30 08:47:22;;;;;;;1.80;1.50;;;;;;;17.09;62.77;99455.53;4852989;29;20436;-63
2024/03/30 08:49:48;;;;;;;4.70;2.33;;;;;;;16.92;63.37;99455.88;4844832;29;20438;-65
2024/03/30 08:52:16;;;;;;;4.23;1.67;;;;;;;17.00;63.20;99446.28;4843706;29;20453;-64
2024/03/30 08:54:43;;;;;;;2.97;2.17;;;;;;;17.10;62.94;99440.75;4843187;29;20506;-64
2024/03/30 08:57:12;;;;;;;6.17;3.20;;;;;;;17.29;62.10;99443.69;4858484;29;21070;-67
2024/03/30 08:59:39;;;;;;;1.70;1.40;;;;;;;17.23;62.34;99439.34;4840088;29;20822;-63
2024/03/30 09:02:07;;;;;;;2.47;1.50;;;;;;;17.33;62.11;99458.44;4857714;29;20440;-65
2024/03/30 09:04:34;;;;;;;2.97;2.37;;;;;;;17.46;60.89;99457.81;4858920;29;20512;-63
2024/03/30 09:07:03;;;;;;;2.03;1.20;;;;;;;17.32;61.52;99456.81;4845961;29;20433;-61
2024/03/30 09:09:30;;;;;;;2.90;1.93;;;;;;;17.70;60.32;99458.81;4843726;29;20403;-64
2024/03/30 09:11:57;;;;;;;4.47;2.20;;;;;;;17.89;59.71;99456.22;4856618;29;20968;-63
2024/03/30 09:14:26;;;;;;;3.63;2.10;;;;;;;18.03;58.27;99456.38;4837570;29;20415;-65
2024/03/30 09:16:54;;;;;;;4.70;2.20;;;;;;;18.10;57.70;99462.34;4858336;29;20413;-61
2024/03/30 09:19:21;;;;;;;5.73;2.70;;;;;;;18.04;57.68;99460.75;4843157;29;20436;-63
2024/03/30 09:21:49;;;;;;;6.00;2.27;;;;;;;18.03;57.83;99459.94;4838667;29;20414;-63
2024/03/30 09:24:16;;;;;;;22.30;2.20;;;;;;;18.20;57.39;99465.81;4840038;29;20419;-64
2024/03/30 09:26:44;;;;;;;10.77;2.03;;;;;;;18.19;57.01;99460.63;4842740;29;20960;-64
2024/03/30 09:29:11;;;;;;;4.57;2.50;;;;;;;18.32;56.29;99457.22;4836796;29;20426;-64
2024/03/30 09:31:40;;;;;;;9.87;4.60;;;;;;;18.35;56.01;99464.84;4856428;29;20492;-63
2024/03/30 09:34:07;;;;;;;2.63;1.07;;;;;;;18.32;56.83;99450.94;4858274;29;20441;-65
2024/03/30 09:36:35;;;;;;;5.53;2.20;;;;;;;18.12;56.43;99443.72;4847040;29;20441;-64
2024/03/30 09:39:03;;;;;;;5.17;2.30;;;;;;;18.15;56.73;99449.41;4862436;29;20472;-62
2024/03/30 09:41:41;;;;;;;4.37;1.20;;;;;;;18.52;56.25;99450.75;4846524;29;20445;-63
2024/03/30 09:44:08;;;;;;;3.47;1.20;;;;;;;18.69;54.06;99445.66;4864521;29;20969;-65
2024/03/30 09:46:39;;;;;;;8.93;2.57;;;;;;;18.92;53.91;99450.34;4862389;29;20448;-63
2024/03/30 09:49:07;;;;;;;1.50;1.03;;;;;;;19.13;52.64;99450.91;4862560;29;20452;-62
2024/03/30 09:51:36;;;;;;;4.60;2.70;;;;;;;19.50;52.63;99450.19;4860478;29;20456;-63
2024/03/30 09:54:04;;;;;;;5.30;2.50;;;;;;;19.56;51.52;99448.19;4857946;29;20438;-64
2024/03/30 09:56:35;;;;;;;3.00;2.03;;;;;;;19.61;50.40;99442.63;4859181;29;20421;-66
2024/03/30 09:59:05;;;;;;;4.10;2.40;;;;;;;19.98;49.87;99450.84;4838808;29;20578;-65
2024/03/30 10:01:33;;;;;;;10.50;6.17;;;;;;;20.14;49.75;99443.97;4845919;29;20430;-64
2024/03/30 10:04:01;;;;;;;6.40;3.20;;;;;;;19.82;49.42;99441.22;4846642;29;20422;-65
2024/03/30 10:06:34;;;;;;;5.23;2.17;;;;;;;20.15;48.78;99440.13;4869838;29;20478;-64
2024/03/30 10:09:05;;;;;;;5.07;2.47;;;;;;;20.01;49.03;99433.75;4848981;29;20981;-64
2024/03/30 10:11:34;;;;;;;5.00;2.50;;;;;;;20.23;48.59;99428.47;4844604;29;20467;-64
2024/03/30 10:14:10;;;;;;;8.53;4.10;;;;;;;20.31;48.69;99438.78;4852707;29;20845;-65
2024/03/30 10:16:38;;;;;;;5.40;2.77;;;;;;;20.63;48.19;99428.84;4836525;29;20462;-63
2024/03/30 10:19:07;;;;;;;1.83;1.10;;;;;;;20.73;47.40;99436.91;4842895;29;20532;-63
2024/03/30 10:21:35;;;;;;;7.50;2.10;;;;;;;20.42;47.80;99427.63;4846299;29;20467;-65
2024/03/30 10:24:04;;;;;;;5.20;2.33;;;;;;;20.61;47.40;99420.13;4842872;29;20915;-64
2024/03/30 10:26:38;;;;;;;2.27;1.33;;;;;;;20.83;47.61;99422.97;4854278;29;20784;-64
2024/03/30 10:29:05;;;;;;;5.67;1.90;;;;;;;20.80;47.58;99418.91;4850352;29;20520;-63
2024/03/30 10:31:33;;;;;;;2.60;1.73;;;;;;;21.07;46.88;99418.09;4854115;29;20456;-64
2024/03/30 10:34:00;;;;;;;10.23;4.43;;;;;;;20.97;46.51;99420.22;4861630;29;21049;-65
2024/03/30 10:36:30;;;;;;;7.13;2.10;;;;;;;20.87;46.81;99417.66;4839731;29;20415;-66
2024/03/30 10:38:57;;;;;;;6.10;2.07;;;;;;;21.22;46.23;99415.03;4847373;29;20442;-64
2024/03/30 10:41:27;;;;;;;9.73;2.73;;;;;;;21.51;45.25;99419.38;4860473;29;20982;-64
2024/03/30 10:43:54;;;;;;;5.83;1.70;;;;;;;21.32;44.76;99413.19;4845847;29;20414;-65
2024/03/30 10:46:23;;;;;;;7.07;2.10;;;;;;;21.63;44.44;99419.66;4860833;29;20961;-64
2024/03/30 10:48:51;;;;;;;6.40;2.30;;;;;;;21.74;44.13;99422.97;4861042;29;20436;-65
2024/03/30 10:51:19;;;;;;;10.23;3.33;;;;;;;21.80;43.91;99414.28;4853525;29;20999;-63
2024/03/30 10:53:48;;;;;;;12.70;4.00;;;;;;;21.98;43.01;99418.00;4838096;29;20451;-66
2024/03/30 10:56:17;;;;;;;12.60;2.60;;;;;;;21.82;42.72;99417.53;4837942;29;20944;-66
2024/03/30 10:58:45;;;;;;;10.93;2.80;;;;;;;21.95;42.80;99415.88;4843724;29;20475;-64
2024/03/30 11:01:14;;;;;;;12.53;2.50;;;;;;;22.19;42.28;99418.31;4860238;29;20463;-61
2024/03/30 11:03:42;;;;;;;5.53;1.63;;;;;;;22.15;42.04;99414.56;4845229;29;20832;-64
2024/03/30 11:06:10;;;;;;;26.50;3.03;;;;;;;22.26;42.08;99418.69;4861331;29;20436;-64
2024/03/30 11:08:39;;;;;;;16.63;3.80;;;;;;;22.50;41.26;99411.72;4845228;29;20450;-64
2024/03/30 11:11:08;;;;;;;6.60;2.57;;;;;;;22.44;41.32;99412.16;4871162;29;20791;-64
2024/03/30 11:13:35;;;;;;;5.90;3.47;;;;;;;22.40;41.59;99406.47;4834168;29;20477;-65
2024/03/30 11:16:06;;;;;;;15.20;2.33;;;;;;;22.53;41.27;99404.75;4846364;29;20442;-65
2024/03/30 11:18:48;;;;;;;14.03;3.60;;;;;;;22.75;40.43;99404.69;4852482;29;20918;-65
2024/03/30 11:21:22;;;;;;;10.60;4.70;;;;;;;22.75;40.26;99401.16;4846908;29;20500;-64
2024/03/30 11:23:56;;;;;;;11.13;2.50;;;;;;;22.86;39.76;99403.28;4856923;29;20854;-63
2024/03/30 11:26:27;;;;;;;11.23;3.67;;;;;;;22.75;40.11;99401.16;4858642;29;20440;-63
2024/03/30 11:29:03;;;;;;;9.77;3.27;;;;;;;23.00;39.94;99396.84;4858771;29;20446;-63
2024/03/30 11:31:41;;;;;;;17.10;2.77;;;;;;;23.07;38.50;99397.19;4845888;29;21007;-64
2024/03/30 11:34:15;;;;;;;13.60;3.63;;;;;;;23.36;38.29;99391.88;4846127;29;20428;-65
2024/03/30 11:36:47;;;;;;;5.10;2.37;;;;;;;23.28;38.14;99388.00;4842478;29;20459;-65
2024/03/30 11:39:21;;;;;;;14.07;2.87;;;;;;;23.47;38.19;99389.66;4851328;29;20443;-65
2024/03/30 11:41:56;;;;;;;8.60;2.83;;;;;;;23.50;37.35;99387.06;4841553;29;20441;-63